createdAt,value
2022-12-06T00:01:41.943Z,12.13
2022-12-06T00:04:13.085Z,11.68
2022-12-06T00:06:44.797Z,12.43
2022-12-06T00:09:25.507Z,11.90
2022-12-06T00:11:53.953Z,11.60
2022-12-06T00:14:22.952Z,10.72
2022-12-06T00:16:51.600Z,11.95
2022-12-06T00:19:22.943Z,12.23
2022-12-06T00:21:50.899Z,14.65
2022-12-06T00:24:21.954Z,12.90
2022-12-06T00:26:50.482Z,13.13
2022-12-06T00:29:23.940Z,13.10
2022-12-06T00:31:51.943Z,13.78
2022-12-06T00:34:19.755Z,13.38
2022-12-06T00:36:48.409Z,12.25
2022-12-06T00:39:17.568Z,13.10
2022-12-06T00:41:45.947Z,12.70
2022-12-06T00:44:13.687Z,12.63
2022-12-06T00:46:41.533Z,11.80
2022-12-06T00:49:09.485Z,11.12
2022-12-06T00:51:38.600Z,11.05
2022-12-06T00:54:07.911Z,11.63
2022-12-06T00:56:36.765Z,11.10
2022-12-06T00:59:05.428Z,14.33
2022-12-06T01:01:35.601Z,13.22
2022-12-06T01:04:06.303Z,11.50
2022-12-06T01:06:36.478Z,11.78
2022-12-06T01:09:09.090Z,12.03
2022-12-06T01:11:37.298Z,12.68
2022-12-06T01:14:05.066Z,12.43
2022-12-06T01:16:33.877Z,11.60
2022-12-06T01:19:04.497Z,12.25
2022-12-06T01:21:32.130Z,12.30
2022-12-06T01:23:59.592Z,11.73
2022-12-06T01:26:31.304Z,11.95
2022-12-06T01:29:00.160Z,11.55
2022-12-06T01:31:35.487Z,14.60
2022-12-06T01:33:58.260Z,13.70
2022-12-06T01:36:26.737Z,13.45
2022-12-06T01:38:58.185Z,12.43
2022-12-06T01:41:27.847Z,12.82
2022-12-06T01:43:56.562Z,14.68
2022-12-06T01:46:44.896Z,14.53
2022-12-06T01:49:19.579Z,16.00
2022-12-06T01:51:54.695Z,16.32
2022-12-06T01:54:24.128Z,16.73
2022-12-06T01:56:54.012Z,16.12
2022-12-06T01:59:23.105Z,16.30
2022-12-06T02:01:51.071Z,16.07
2022-12-06T02:04:20.222Z,14.65
2022-12-06T02:06:49.342Z,13.93
2022-12-06T02:09:18.535Z,12.75
2022-12-06T02:11:49.412Z,12.40
2022-12-06T02:14:21.946Z,12.15
2022-12-06T02:17:13.310Z,12.95
2022-12-06T02:20:18.271Z,11.08
2022-12-06T02:23:21.764Z,11.90
2022-12-06T02:26:03.323Z,12.20
2022-12-06T02:29:08.233Z,12.35
2022-12-06T02:31:42.791Z,13.00
2022-12-06T02:34:39.970Z,12.03
2022-12-06T02:37:18.534Z,9.85
2022-12-06T02:40:12.056Z,10.50
2022-12-06T02:42:47.630Z,12.33
2022-12-06T02:45:22.311Z,21.73
2022-12-06T02:47:52.592Z,41.45
2022-12-06T02:50:25.740Z,46.88
2022-12-06T02:52:56.368Z,44.88
2022-12-06T02:55:25.041Z,28.70
2022-12-06T02:57:56.208Z,16.97
2022-12-06T03:00:35.656Z,12.60
2022-12-06T03:03:46.843Z,13.05
2022-12-06T03:06:49.142Z,10.88
2022-12-06T03:09:31.340Z,11.57
2022-12-06T03:12:10.496Z,12.75
2022-12-06T03:14:43.536Z,12.65
2022-12-06T03:17:44.288Z,13.40
2022-12-06T03:20:17.244Z,16.97
2022-12-06T03:22:49.919Z,16.62
2022-12-06T03:25:18.796Z,15.30
2022-12-06T03:27:50.861Z,14.35
2022-12-06T03:30:19.683Z,12.13
2022-12-06T03:32:52.524Z,13.20
2022-12-06T03:35:27.172Z,12.47
2022-12-06T03:38:09.080Z,12.05
2022-12-06T03:40:41.343Z,10.00
2022-12-06T03:43:10.361Z,10.38
2022-12-06T03:45:55.898Z,12.10
2022-12-06T03:48:44.815Z,14.47
2022-12-06T03:51:23.232Z,13.65
2022-12-06T03:53:54.236Z,14.07
2022-12-06T03:56:23.384Z,15.08
2022-12-06T03:58:51.388Z,16.15
2022-12-06T04:01:21.567Z,22.80
2022-12-06T04:03:50.511Z,18.67
2022-12-06T04:06:18.245Z,24.47
2022-12-06T04:08:45.719Z,18.45
2022-12-06T04:11:13.829Z,21.82
2022-12-06T04:13:42.554Z,28.00
2022-12-06T04:16:29.467Z,28.73
2022-12-06T04:18:56.898Z,25.37
2022-12-06T04:21:33.316Z,21.68
2022-12-06T04:24:02.252Z,19.85
2022-12-06T04:26:29.891Z,18.37
2022-12-06T04:29:16.119Z,17.90
2022-12-06T04:32:01.789Z,23.60
2022-12-06T04:34:47.952Z,23.87
2022-12-06T04:37:34.199Z,19.62
2022-12-06T04:40:02.120Z,20.68
2022-12-06T04:42:48.569Z,27.82
2022-12-06T04:45:16.373Z,35.85
2022-12-06T04:47:43.872Z,39.40
2022-12-06T04:50:11.413Z,34.92
2022-12-06T04:52:39.194Z,29.75
2022-12-06T04:55:07.927Z,35.95
2022-12-06T04:57:35.605Z,49.48
2022-12-06T05:00:04.471Z,56.92
2022-12-06T05:02:32.199Z,46.02
2022-12-06T05:05:00.279Z,46.63
2022-12-06T05:07:28.016Z,39.98
2022-12-06T05:09:55.721Z,24.95
2022-12-06T05:12:23.534Z,19.45
2022-12-06T05:14:51.143Z,19.75
2022-12-06T05:17:18.498Z,20.72
2022-12-06T05:19:45.883Z,21.27
2022-12-06T05:22:13.412Z,19.45
2022-12-06T05:24:41.101Z,19.02
2022-12-06T05:27:08.613Z,18.82
2022-12-06T05:29:36.296Z,18.67
2022-12-06T05:32:04.971Z,19.60
2022-12-06T05:34:32.514Z,17.98
2022-12-06T05:36:59.891Z,17.55
2022-12-06T05:39:28.798Z,19.02
2022-12-06T05:41:56.366Z,24.87
2022-12-06T05:44:24.063Z,29.27
2022-12-06T05:46:51.385Z,26.40
2022-12-06T05:49:19.115Z,25.43
2022-12-06T05:51:46.616Z,22.93
2022-12-06T05:54:14.173Z,23.10
2022-12-06T05:56:41.971Z,23.70
2022-12-06T05:59:09.326Z,24.63
2022-12-06T06:01:37.015Z,23.02
2022-12-06T06:04:04.755Z,24.18
2022-12-06T06:06:32.191Z,23.32
2022-12-06T06:09:00.584Z,21.70
2022-12-06T06:11:28.346Z,23.12
2022-12-06T06:13:56.111Z,22.07
2022-12-06T06:16:25.782Z,20.12
2022-12-06T06:18:53.599Z,25.55
2022-12-06T06:21:21.118Z,24.30
2022-12-06T06:23:48.660Z,21.02
2022-12-06T06:26:16.316Z,21.68
2022-12-06T06:28:43.890Z,25.17
2022-12-06T06:31:11.976Z,31.20
2022-12-06T06:33:39.777Z,29.90
2022-12-06T06:36:08.613Z,22.32
2022-12-06T06:38:36.363Z,35.25
2022-12-06T06:41:06.052Z,28.77
2022-12-06T06:43:33.949Z,25.85
2022-12-06T06:46:07.339Z,27.65
2022-12-06T06:51:09.486Z,32.78
2022-12-06T06:53:38.778Z,39.53
2022-12-06T06:56:07.358Z,39.42
2022-12-06T06:58:35.220Z,39.53
2022-12-06T07:01:06.142Z,44.00
2022-12-06T07:03:34.523Z,45.38
2022-12-06T07:06:09.077Z,54.35
2022-12-06T07:08:38.563Z,49.60
2022-12-06T07:11:06.503Z,43.00
2022-12-06T07:13:36.367Z,36.90
2022-12-06T07:16:10.740Z,39.78
2022-12-06T07:18:38.582Z,46.90
2022-12-06T07:21:10.422Z,41.37
2022-12-06T07:23:37.928Z,39.92
2022-12-06T07:26:10.025Z,38.50
2022-12-06T07:28:39.917Z,43.70
2022-12-06T07:31:14.618Z,36.65
2022-12-06T07:33:43.289Z,28.47
2022-12-06T07:36:13.668Z,26.17
2022-12-06T07:38:43.182Z,25.35
2022-12-06T07:41:31.965Z,26.65
2022-12-06T07:44:20.246Z,33.25
2022-12-06T07:46:48.673Z,27.10
2022-12-06T07:49:18.093Z,24.23
2022-12-06T07:51:46.763Z,15.80
2022-12-06T07:54:15.699Z,15.05
2022-12-06T07:56:44.452Z,14.95
2022-12-06T07:59:12.546Z,12.93
2022-12-06T08:01:40.318Z,11.30
2022-12-06T08:04:08.611Z,11.48
2022-12-06T08:06:36.792Z,11.25
2022-12-06T08:09:05.884Z,11.18
2022-12-06T08:11:34.437Z,12.53
2022-12-06T08:14:04.171Z,9.70
2022-12-06T08:16:31.868Z,10.48
2022-12-06T08:18:59.585Z,13.93
2022-12-06T08:21:27.594Z,15.00
2022-12-06T08:23:55.120Z,12.70
2022-12-06T08:26:23.611Z,10.23
2022-12-06T08:28:52.284Z,9.43
2022-12-06T08:31:23.639Z,10.40
2022-12-06T08:33:51.392Z,10.08
2022-12-06T08:36:21.925Z,12.63
2022-12-06T08:38:51.170Z,12.15
2022-12-06T08:41:37.948Z,10.13
2022-12-06T08:44:06.445Z,11.95
2022-12-06T08:46:35.068Z,22.60
2022-12-06T08:49:03.822Z,20.60
2022-12-06T08:51:33.699Z,23.55
2022-12-06T08:54:02.571Z,21.17
2022-12-06T08:56:30.401Z,18.80
2022-12-06T08:58:58.174Z,16.42
2022-12-06T09:01:35.722Z,17.65
2022-12-06T09:04:01.143Z,14.25
2022-12-06T09:06:29.899Z,13.25
2022-12-06T09:08:58.153Z,17.17
2022-12-06T09:11:26.605Z,14.38
2022-12-06T09:13:54.261Z,13.93
2022-12-06T09:16:23.843Z,11.88
2022-12-06T09:18:51.675Z,11.68
2022-12-06T09:21:24.011Z,9.50
2022-12-06T09:23:56.772Z,12.80
2022-12-06T09:26:25.249Z,14.40
2022-12-06T09:28:56.320Z,13.95
2022-12-06T09:31:26.258Z,14.10
2022-12-06T09:33:54.270Z,14.25
2022-12-06T09:36:28.727Z,14.78
2022-12-06T09:39:16.345Z,12.43
2022-12-06T09:42:03.949Z,10.08
2022-12-06T09:44:52.527Z,9.78
2022-12-06T09:47:51.802Z,9.38
2022-12-06T09:50:34.197Z,9.80
2022-12-06T09:53:15.948Z,9.65
2022-12-06T09:55:57.953Z,9.48
2022-12-06T09:58:37.318Z,10.08
2022-12-06T10:01:10.327Z,9.85
2022-12-06T10:04:23.408Z,8.83
2022-12-06T10:07:17.348Z,6.62
2022-12-06T10:10:02.942Z,6.15
2022-12-06T10:12:51.658Z,8.83
2022-12-06T10:15:51.810Z,9.03
2022-12-06T10:18:34.144Z,9.50
2022-12-06T10:21:45.422Z,9.15
2022-12-06T10:24:30.171Z,11.08
2022-12-06T10:27:03.887Z,11.93
2022-12-06T10:29:54.601Z,11.55
2022-12-06T10:32:34.111Z,12.37
2022-12-06T10:35:30.952Z,14.50
2022-12-06T10:38:20.754Z,15.75
2022-12-06T10:41:06.140Z,15.40
2022-12-06T10:44:06.526Z,18.27
2022-12-06T10:47:04.213Z,19.77
2022-12-06T10:50:04.729Z,15.53
2022-12-06T10:52:47.942Z,19.60
2022-12-06T10:55:49.301Z,22.95
2022-12-06T10:58:47.074Z,22.13
2022-12-06T11:01:28.583Z,21.52
2022-12-06T11:04:16.639Z,18.35
2022-12-06T11:06:55.627Z,16.32
2022-12-06T11:09:43.195Z,18.65
2022-12-06T11:12:36.241Z,14.05
2022-12-06T11:15:23.816Z,13.68
2022-12-06T11:18:03.728Z,12.63
2022-12-06T11:20:58.147Z,12.78
2022-12-06T11:23:33.787Z,13.58
2022-12-06T11:26:29.177Z,12.70
2022-12-06T11:29:06.013Z,12.88
2022-12-06T11:31:54.359Z,16.73
2022-12-06T11:34:36.692Z,19.40
2022-12-06T11:37:05.533Z,16.45
2022-12-06T11:39:34.192Z,16.87
2022-12-06T11:42:04.292Z,16.20
2022-12-06T11:44:50.210Z,15.95
2022-12-06T11:47:21.806Z,13.58
2022-12-06T11:49:53.855Z,14.07
2022-12-06T11:52:38.877Z,14.63
2022-12-06T11:55:22.532Z,15.00
2022-12-06T11:58:03.673Z,13.75
2022-12-06T12:00:31.467Z,14.55
2022-12-06T12:02:59.526Z,14.43
2022-12-06T12:05:32.589Z,14.65
2022-12-06T12:08:07.193Z,11.70
2022-12-06T12:10:41.276Z,11.63
2022-12-06T12:13:35.752Z,17.57
2022-12-06T12:16:19.533Z,16.75
2022-12-06T12:19:09.009Z,12.60
2022-12-06T12:21:42.533Z,11.70
2022-12-06T12:27:40.242Z,10.60
2022-12-06T12:30:35.706Z,7.15
2022-12-06T12:33:11.503Z,5.50
2022-12-06T12:35:43.549Z,5.85
2022-12-06T12:38:22.323Z,7.20
2022-12-06T12:41:04.774Z,8.03
2022-12-06T12:43:34.065Z,9.40
2022-12-06T12:46:13.346Z,8.80
2022-12-06T12:48:44.048Z,13.40
2022-12-06T12:51:35.703Z,10.53
2022-12-06T12:54:19.566Z,10.95
2022-12-06T12:56:48.619Z,11.48
2022-12-06T12:59:20.977Z,12.40
2022-12-06T13:01:58.690Z,12.05
2022-12-06T13:05:05.174Z,11.93
2022-12-06T13:07:32.312Z,10.18
2022-12-06T13:10:20.822Z,11.18
2022-12-06T13:12:59.055Z,11.28
2022-12-06T13:15:48.665Z,13.10
2022-12-06T13:18:42.299Z,12.70
2022-12-06T13:21:18.026Z,14.55
2022-12-06T13:23:50.116Z,15.40
2022-12-06T13:26:31.672Z,19.50
2022-12-06T13:29:09.854Z,21.62
2022-12-06T13:31:39.488Z,26.50
2022-12-06T13:34:18.114Z,25.65
2022-12-06T13:36:46.234Z,26.65
2022-12-06T13:39:34.541Z,29.27
2022-12-06T13:42:19.861Z,27.32
2022-12-06T13:44:55.379Z,27.00
2022-12-06T13:47:31.285Z,26.35
2022-12-06T13:50:09.539Z,25.90
2022-12-06T13:52:51.604Z,23.77
2022-12-06T13:55:30.604Z,23.27
2022-12-06T13:58:03.598Z,23.62
2022-12-06T14:00:42.874Z,22.67
2022-12-06T14:03:22.976Z,23.75
2022-12-06T14:06:15.379Z,23.30
2022-12-06T14:08:56.575Z,25.75
2022-12-06T14:11:38.148Z,26.65
2022-12-06T14:14:08.959Z,27.82
2022-12-06T14:16:49.798Z,31.05
2022-12-06T14:19:46.353Z,35.23
2022-12-06T14:22:30.122Z,34.23
2022-12-06T14:25:09.278Z,40.08
2022-12-06T14:27:44.407Z,38.63
2022-12-06T14:30:26.010Z,30.23
2022-12-06T14:32:58.172Z,35.20
2022-12-06T14:35:32.958Z,25.77
2022-12-06T14:38:06.068Z,24.77
2022-12-06T14:40:58.973Z,25.57
2022-12-06T14:43:31.276Z,29.80
2022-12-06T14:46:03.414Z,48.98
2022-12-06T14:48:35.158Z,73.12
2022-12-06T14:51:02.613Z,62.48
2022-12-06T14:53:37.082Z,68.90
2022-12-06T14:56:09.533Z,35.20
2022-12-06T14:58:42.405Z,34.73
2022-12-06T15:01:23.547Z,30.20
2022-12-06T15:04:07.510Z,27.13
2022-12-06T15:06:37.249Z,28.47
2022-12-06T15:09:14.630Z,31.97
2022-12-06T15:12:02.029Z,31.97
2022-12-06T15:14:46.356Z,25.00
2022-12-06T15:17:20.684Z,22.45
2022-12-06T15:19:53.084Z,24.95
2022-12-06T15:22:25.957Z,27.60
2022-12-06T15:24:59.142Z,24.37
2022-12-06T15:27:27.671Z,27.13
2022-12-06T15:29:55.348Z,31.62
2022-12-06T15:32:26.383Z,39.95
2022-12-06T15:34:53.637Z,45.80
2022-12-06T15:37:39.391Z,42.27
2022-12-06T15:39:51.255Z,49.40
2022-12-06T15:42:22.536Z,49.50
2022-12-06T15:44:52.024Z,51.40
2022-12-06T15:47:19.945Z,51.23
2022-12-06T15:49:50.068Z,45.20
2022-12-06T15:52:24.074Z,47.85
2022-12-06T15:54:55.391Z,46.53
2022-12-06T15:57:23.089Z,46.70
2022-12-06T15:59:50.765Z,51.00
2022-12-06T16:02:18.701Z,47.58
2022-12-06T16:04:48.591Z,50.10
2022-12-06T16:07:18.097Z,48.55
2022-12-06T16:09:46.793Z,46.20
2022-12-06T16:12:14.645Z,42.48
2022-12-06T16:14:42.577Z,48.63
2022-12-06T16:17:10.333Z,43.00
2022-12-06T16:19:56.495Z,43.15
2022-12-06T16:22:26.241Z,42.20
2022-12-06T16:24:54.192Z,44.98
2022-12-06T16:27:21.962Z,53.20
2022-12-06T16:29:49.566Z,51.42
2022-12-06T16:32:17.088Z,52.17
2022-12-06T16:34:44.485Z,51.33
2022-12-06T16:37:13.244Z,48.75
2022-12-06T16:39:40.704Z,41.65
2022-12-06T16:42:08.525Z,38.45
2022-12-06T16:44:37.767Z,36.10
2022-12-06T16:47:09.019Z,37.17
2022-12-06T16:49:48.422Z,37.33
2022-12-06T16:52:09.088Z,39.75
2022-12-06T16:54:38.934Z,34.45
2022-12-06T16:57:06.531Z,34.88
2022-12-06T16:59:34.751Z,31.60
2022-12-06T17:02:02.036Z,29.90
2022-12-06T17:04:30.988Z,40.15
2022-12-06T17:06:58.625Z,48.75
2022-12-06T17:09:27.475Z,41.45
2022-12-06T17:12:05.992Z,42.88
2022-12-06T17:14:35.438Z,44.98
2022-12-06T17:17:03.346Z,48.92
2022-12-06T17:19:33.097Z,50.88
2022-12-06T17:22:01.794Z,60.03
2022-12-06T17:24:29.971Z,75.35
2022-12-06T17:27:00.749Z,80.50
2022-12-06T17:29:28.530Z,86.95
2022-12-06T17:31:56.858Z,75.57
2022-12-06T17:34:25.038Z,77.67
2022-12-06T17:36:53.266Z,75.03
2022-12-06T17:39:21.703Z,71.57
2022-12-06T17:42:07.953Z,64.30
2022-12-06T17:44:36.215Z,59.63
2022-12-06T17:47:03.988Z,66.62
2022-12-06T17:49:31.560Z,92.78
2022-12-06T17:51:59.295Z,83.37
2022-12-06T17:54:27.077Z,74.40
2022-12-06T17:56:58.035Z,62.38
2022-12-06T17:59:29.769Z,58.58
2022-12-06T18:02:18.195Z,54.60
2022-12-06T18:04:31.641Z,54.67
2022-12-06T18:06:58.933Z,52.20
2022-12-06T18:09:28.090Z,58.05
2022-12-06T18:11:55.568Z,53.52
2022-12-06T18:14:23.364Z,50.73
2022-12-06T18:16:50.845Z,52.27
2022-12-06T18:19:20.730Z,70.00
2022-12-06T18:21:49.105Z,67.45
2022-12-06T18:24:22.453Z,74.07
2022-12-06T18:26:50.518Z,67.82
2022-12-06T18:29:23.708Z,74.55
2022-12-06T18:31:52.311Z,77.37
2022-12-06T18:34:22.378Z,72.42
2022-12-06T18:36:50.713Z,72.42
2022-12-06T18:39:25.942Z,66.05
2022-12-06T18:41:55.388Z,63.50
2022-12-06T18:44:23.592Z,56.80
2022-12-06T18:46:51.387Z,53.00
2022-12-06T18:49:19.081Z,50.65
2022-12-06T18:51:46.417Z,49.67
2022-12-06T18:54:14.516Z,52.23
2022-12-06T18:56:42.578Z,49.08
2022-12-06T18:59:11.928Z,51.70
2022-12-06T19:01:41.128Z,47.58
2022-12-06T19:04:12.887Z,52.95
2022-12-06T19:06:40.566Z,55.40
2022-12-06T19:09:12.641Z,75.80
2022-12-06T19:11:45.218Z,82.57
2022-12-06T19:14:14.336Z,75.67
2022-12-06T19:16:48.156Z,75.30
2022-12-06T19:19:23.834Z,72.32
2022-12-06T19:21:53.076Z,69.85
2022-12-06T19:24:23.927Z,68.20
2022-12-06T19:26:54.180Z,66.20
2022-12-06T19:29:22.520Z,61.60
2022-12-06T19:31:50.884Z,55.70
2022-12-06T19:34:25.453Z,58.50
2022-12-06T19:36:54.803Z,63.42
2022-12-06T19:39:23.524Z,69.07
2022-12-06T19:42:10.362Z,64.30
2022-12-06T19:44:38.691Z,65.90
2022-12-06T19:47:06.375Z,62.53
2022-12-06T19:49:34.369Z,58.52
2022-12-06T19:52:01.829Z,53.92
2022-12-06T19:54:32.147Z,56.18
2022-12-06T19:57:00.909Z,53.30
2022-12-06T19:59:33.494Z,54.45
2022-12-06T20:02:02.345Z,53.40
2022-12-06T20:04:36.299Z,55.63
2022-12-06T20:07:04.816Z,82.37
2022-12-06T20:09:33.788Z,57.83
2022-12-06T20:12:04.916Z,55.78
2022-12-06T20:14:40.898Z,77.17
2022-12-06T20:17:18.509Z,53.05
2022-12-06T20:19:48.513Z,40.60
2022-12-06T20:22:19.243Z,31.87
2022-12-06T20:24:47.744Z,32.58
2022-12-06T20:27:15.557Z,35.40
2022-12-06T20:29:43.212Z,33.85
2022-12-06T20:32:10.946Z,40.63
2022-12-06T20:34:38.908Z,47.67
2022-12-06T20:37:06.802Z,41.33
2022-12-06T20:39:35.268Z,51.58
2022-12-06T20:42:06.396Z,68.35
2022-12-06T20:44:37.105Z,43.68
2022-12-06T20:47:05.202Z,36.25
2022-12-06T20:49:33.217Z,39.50
2022-12-06T20:52:02.355Z,44.25
2022-12-06T20:54:30.121Z,48.17
2022-12-06T20:56:58.603Z,54.75
2022-12-06T20:59:26.632Z,51.15
2022-12-06T21:01:54.467Z,51.83
2022-12-06T21:04:22.139Z,45.67
2022-12-06T21:06:49.648Z,43.63
2022-12-06T21:09:17.090Z,45.85
2022-12-06T21:11:44.566Z,57.15
2022-12-06T21:14:14.701Z,41.77
2022-12-06T21:16:43.812Z,38.28
2022-12-06T21:19:18.842Z,36.08
2022-12-06T21:21:52.567Z,37.98
2022-12-06T21:24:21.823Z,38.95
2022-12-06T21:26:49.674Z,40.73
2022-12-06T21:29:24.962Z,36.13
2022-12-06T21:31:50.164Z,39.15
2022-12-06T21:34:18.211Z,37.03
2022-12-06T21:36:45.777Z,32.48
2022-12-06T21:39:14.415Z,30.30
2022-12-06T21:41:42.186Z,30.80
2022-12-06T21:44:10.019Z,31.65
2022-12-06T21:46:37.739Z,32.00
2022-12-06T21:49:05.317Z,37.40
2022-12-06T21:51:33.174Z,46.28
2022-12-06T21:54:00.981Z,44.73
2022-12-06T21:56:30.922Z,38.83
2022-12-06T21:59:03.240Z,36.25
2022-12-06T22:01:32.022Z,35.65
2022-12-06T22:04:03.344Z,40.33
2022-12-06T22:06:32.062Z,81.05
2022-12-06T22:09:04.901Z,80.70
2022-12-06T22:11:35.213Z,77.30
2022-12-06T22:14:04.323Z,71.22
2022-12-06T22:16:32.102Z,55.88
2022-12-06T22:18:59.754Z,56.68
2022-12-06T22:21:30.291Z,60.90
2022-12-06T22:23:58.263Z,65.92
2022-12-06T22:26:29.202Z,53.83
2022-12-06T22:28:59.357Z,41.30
2022-12-06T22:31:30.963Z,41.73
2022-12-06T22:34:00.394Z,41.77
2022-12-06T22:36:29.069Z,43.30
2022-12-06T22:38:59.966Z,40.92
2022-12-06T22:41:28.435Z,40.15
2022-12-06T22:44:00.357Z,39.40
2022-12-06T22:46:30.059Z,38.95
2022-12-06T22:48:59.586Z,38.00
2022-12-06T22:51:34.187Z,39.85
2022-12-06T22:54:09.040Z,40.28
2022-12-06T22:56:38.397Z,41.55
2022-12-06T22:59:06.460Z,44.23
2022-12-06T23:01:35.566Z,43.35
2022-12-06T23:04:06.119Z,43.25
2022-12-06T23:06:35.276Z,41.95
2022-12-06T23:09:10.644Z,42.23
2022-12-06T23:11:38.055Z,43.13
2022-12-06T23:14:07.523Z,44.10
2022-12-06T23:16:35.941Z,48.08
2022-12-06T23:19:03.967Z,50.95
2022-12-06T23:21:35.636Z,51.90
2022-12-06T23:24:10.672Z,48.33
2022-12-06T23:26:42.706Z,46.53
2022-12-06T23:29:10.742Z,48.15
2022-12-06T23:31:42.168Z,48.80
2022-12-06T23:34:21.696Z,51.53
2022-12-06T23:36:49.724Z,50.70
2022-12-06T23:39:18.210Z,45.63
2022-12-06T23:41:45.841Z,44.18
2022-12-06T23:44:13.822Z,47.40
2022-12-06T23:46:43.176Z,35.33
2022-12-06T23:49:17.979Z,34.63
2022-12-06T23:51:47.072Z,28.77
2022-12-06T23:54:16.376Z,30.82
2022-12-06T23:56:44.361Z,27.73
2022-12-06T23:59:14.195Z,26.23
